createdAt,value
2023-05-18T00:01:16.371Z,7.90
2023-05-18T00:03:43.237Z,7.90
2023-05-18T00:06:10.336Z,7.80
2023-05-18T00:08:38.933Z,7.80
2023-05-18T00:11:06.660Z,7.70
2023-05-18T00:13:33.783Z,7.70
2023-05-18T00:16:00.720Z,7.60
2023-05-18T00:18:27.976Z,7.60
2023-05-18T00:21:00.318Z,7.50
2023-05-18T00:23:31.770Z,7.50
2023-05-18T00:26:02.798Z,7.50
2023-05-18T00:28:29.603Z,7.50
2023-05-18T00:30:56.788Z,7.40
2023-05-18T00:33:23.782Z,7.40
2023-05-18T00:35:50.610Z,7.30
2023-05-18T00:38:17.652Z,7.20
2023-05-18T00:40:44.486Z,7.20
2023-05-18T00:43:11.464Z,7.20
2023-05-18T00:45:38.354Z,7.20
2023-05-18T00:48:05.829Z,7.10
2023-05-18T00:50:32.701Z,7.10
2023-05-18T00:52:59.769Z,7.10
2023-05-18T00:55:28.566Z,7.00
2023-05-18T00:57:56.877Z,6.80
2023-05-18T01:00:23.927Z,6.70
2023-05-18T01:02:51.252Z,6.60
2023-05-18T01:05:19.754Z,6.60
2023-05-18T01:07:47.786Z,6.50
2023-05-18T01:10:17.271Z,6.50
2023-05-18T01:12:56.648Z,6.40
2023-05-18T01:15:32.858Z,6.40
2023-05-18T01:18:10.324Z,6.40
2023-05-18T01:20:45.986Z,6.30
2023-05-18T01:23:44.724Z,6.30
2023-05-18T01:26:15.368Z,6.20
2023-05-18T01:28:46.376Z,6.20
2023-05-18T01:31:20.689Z,6.30
2023-05-18T01:33:47.418Z,6.20
2023-05-18T01:36:14.058Z,6.30
2023-05-18T01:38:43.756Z,6.40
2023-05-18T01:41:27.011Z,6.40
2023-05-18T01:44:26.111Z,6.40
2023-05-18T01:47:17.666Z,6.50
2023-05-18T01:50:05.242Z,6.50
2023-05-18T01:52:45.486Z,6.50
2023-05-18T01:55:15.447Z,6.60
2023-05-18T01:57:45.644Z,6.60
2023-05-18T02:00:13.286Z,6.60
2023-05-18T02:02:39.994Z,6.70
2023-05-18T02:05:07.548Z,6.70
2023-05-18T02:07:34.363Z,6.80
2023-05-18T02:10:01.072Z,6.80
2023-05-18T02:12:27.797Z,6.80
2023-05-18T02:14:55.520Z,6.80
2023-05-18T02:17:22.286Z,6.80
2023-05-18T02:19:49.177Z,6.80
2023-05-18T02:22:16.324Z,6.80
2023-05-18T02:24:42.942Z,6.80
2023-05-18T02:27:09.635Z,6.80
2023-05-18T02:29:36.246Z,6.90
2023-05-18T02:32:03.284Z,6.80
2023-05-18T02:34:32.240Z,6.90
2023-05-18T02:37:03.557Z,6.80
2023-05-18T02:39:30.645Z,6.80
2023-05-18T02:41:57.400Z,6.80
2023-05-18T02:44:24.000Z,6.70
2023-05-18T02:46:50.679Z,6.70
2023-05-18T02:49:17.337Z,6.60
2023-05-18T02:51:43.962Z,6.50
2023-05-18T02:54:10.698Z,6.60
2023-05-18T02:56:38.357Z,6.60
2023-05-18T02:59:07.280Z,6.60
2023-05-18T03:01:37.574Z,6.60
2023-05-18T03:04:04.287Z,6.60
2023-05-18T03:06:30.920Z,6.60
2023-05-18T03:08:57.585Z,6.60
2023-05-18T03:11:24.766Z,6.70
2023-05-18T03:13:51.739Z,6.60
2023-05-18T03:16:18.759Z,6.60
2023-05-18T03:18:46.018Z,6.70
2023-05-18T03:21:13.562Z,6.50
2023-05-18T03:23:40.597Z,6.50
2023-05-18T03:26:11.286Z,6.50
2023-05-18T03:28:39.077Z,6.40
2023-05-18T03:31:06.038Z,6.40
2023-05-18T03:33:33.008Z,6.30
2023-05-18T03:36:04.656Z,6.20
2023-05-18T03:38:31.447Z,6.10
2023-05-18T03:40:58.212Z,6.10
2023-05-18T03:43:25.865Z,6.20
2023-05-18T03:45:53.336Z,6.20
2023-05-18T03:48:21.542Z,6.20
2023-05-18T03:50:48.645Z,6.20
2023-05-18T03:53:18.865Z,6.20
2023-05-18T03:55:46.022Z,6.20
2023-05-18T03:58:12.718Z,6.20
2023-05-18T04:00:39.517Z,6.00
2023-05-18T04:03:06.433Z,6.00
2023-05-18T04:05:33.662Z,6.00
2023-05-18T04:08:00.755Z,6.00
2023-05-18T04:10:27.408Z,6.00
2023-05-18T04:12:54.114Z,6.00
2023-05-18T04:15:20.727Z,6.00
2023-05-18T04:17:49.976Z,6.00
2023-05-18T04:20:17.149Z,5.90
2023-05-18T04:22:47.963Z,6.00
2023-05-18T04:25:15.923Z,6.10
2023-05-18T04:27:50.499Z,6.20
2023-05-18T04:30:18.597Z,6.10
2023-05-18T04:32:45.271Z,6.20
2023-05-18T04:35:12.283Z,6.20
2023-05-18T04:37:42.798Z,6.30
2023-05-18T04:40:13.252Z,6.40
2023-05-18T04:42:49.014Z,6.30
2023-05-18T04:45:22.781Z,6.40
2023-05-18T04:47:53.620Z,6.60
2023-05-18T04:50:23.546Z,6.80
2023-05-18T04:52:52.076Z,6.90
2023-05-18T04:55:27.280Z,7.00
2023-05-18T04:57:57.841Z,7.10
2023-05-18T05:00:26.133Z,7.20
2023-05-18T05:02:54.269Z,7.30
2023-05-18T05:05:25.627Z,7.40
2023-05-18T05:07:53.443Z,7.40
2023-05-18T05:10:21.515Z,7.60
2023-05-18T05:12:52.177Z,7.70
2023-05-18T05:15:20.050Z,7.80
2023-05-18T05:17:47.925Z,7.80
2023-05-18T05:20:16.642Z,7.80
2023-05-18T05:22:43.573Z,7.90
2023-05-18T05:25:11.213Z,8.20
2023-05-18T05:27:37.994Z,8.30
2023-05-18T05:30:05.962Z,8.40
2023-05-18T05:32:32.654Z,8.70
2023-05-18T05:35:08.741Z,8.80
2023-05-18T05:37:35.992Z,9.10
2023-05-18T05:40:06.029Z,9.50
2023-05-18T05:42:33.002Z,9.90
2023-05-18T05:44:59.609Z,10.10
2023-05-18T05:47:26.329Z,10.30
2023-05-18T05:49:53.021Z,11.20
2023-05-18T05:52:19.694Z,11.70
2023-05-18T05:54:47.546Z,13.00
2023-05-18T05:57:14.162Z,15.10
2023-05-18T05:59:42.233Z,16.50
2023-05-18T06:02:10.380Z,17.50
2023-05-18T06:04:37.052Z,17.30
2023-05-18T06:07:03.960Z,17.30
2023-05-18T06:09:30.608Z,17.80
2023-05-18T06:11:57.361Z,18.40
2023-05-18T06:14:24.095Z,18.30
2023-05-18T06:16:50.933Z,18.50
2023-05-18T06:19:17.882Z,18.30
2023-05-18T06:21:44.981Z,18.90
2023-05-18T06:26:38.660Z,20.20
2023-05-18T06:29:05.588Z,20.90
2023-05-18T06:31:32.289Z,20.70
2023-05-18T06:33:58.924Z,19.90
2023-05-18T06:36:25.648Z,19.70
2023-05-18T06:38:52.552Z,19.60
2023-05-18T06:43:47.407Z,20.40
2023-05-18T06:46:22.114Z,20.10
2023-05-18T06:48:48.900Z,20.20
2023-05-18T06:51:16.180Z,21.40
2023-05-18T06:53:43.490Z,22.30
2023-05-18T06:56:12.926Z,21.60
2023-05-18T06:58:42.961Z,21.20
2023-05-18T07:01:10.988Z,21.40
2023-05-18T07:03:37.869Z,21.30
2023-05-18T07:06:05.192Z,19.80
2023-05-18T07:08:32.644Z,19.80
2023-05-18T07:11:02.155Z,20.60
2023-05-18T07:13:29.602Z,21.50
2023-05-18T07:18:23.622Z,22.10
2023-05-18T07:20:50.370Z,21.90
2023-05-18T07:23:17.106Z,21.80
2023-05-18T07:25:43.761Z,24.10
2023-05-18T07:28:10.483Z,24.20
2023-05-18T07:33:04.339Z,24.60
2023-05-18T07:35:31.308Z,25.60
2023-05-18T07:37:58.110Z,23.70
2023-05-18T07:40:24.810Z,22.90
2023-05-18T07:42:51.492Z,23.40
2023-05-18T07:45:18.129Z,23.90
2023-05-18T07:47:44.858Z,25.00
2023-05-18T07:50:11.706Z,25.80
2023-05-18T07:52:38.303Z,26.90
2023-05-18T07:55:05.678Z,26.00
2023-05-18T07:57:33.572Z,25.30
2023-05-18T08:00:00.199Z,25.30
2023-05-18T08:02:26.934Z,24.50
2023-05-18T08:04:53.611Z,24.40
2023-05-18T08:07:21.489Z,23.80
2023-05-18T08:09:48.152Z,23.60
2023-05-18T08:12:14.778Z,23.70
2023-05-18T08:14:41.483Z,25.00
2023-05-18T08:17:08.259Z,24.40
2023-05-18T08:19:34.915Z,24.80
2023-05-18T08:22:01.515Z,25.50
2023-05-18T08:24:28.208Z,25.10
2023-05-18T08:26:54.875Z,25.20
2023-05-18T08:29:21.561Z,25.30
2023-05-18T08:31:49.666Z,26.00
2023-05-18T08:34:16.643Z,25.50
2023-05-18T08:36:45.507Z,26.30
2023-05-18T08:39:12.951Z,26.20
2023-05-18T08:41:55.758Z,27.10
2023-05-18T08:44:28.437Z,26.70
2023-05-18T08:49:26.193Z,26.60
2023-05-18T08:51:57.985Z,24.70
2023-05-18T08:54:25.363Z,24.40
2023-05-18T08:56:53.448Z,24.90
2023-05-18T08:59:31.730Z,25.40
2023-05-18T09:01:58.649Z,26.80
2023-05-18T09:04:27.121Z,27.10
2023-05-18T09:06:54.692Z,26.10
2023-05-18T09:09:22.409Z,27.10
2023-05-18T09:14:17.073Z,25.20
2023-05-18T09:19:10.984Z,25.00
2023-05-18T09:21:37.659Z,25.70
2023-05-18T09:24:05.183Z,26.20
2023-05-18T09:28:59.717Z,25.80
2023-05-18T09:31:27.445Z,25.70
2023-05-18T09:33:54.378Z,26.30
2023-05-18T09:36:25.977Z,26.80
2023-05-18T09:38:53.441Z,26.70
2023-05-18T09:41:20.196Z,26.20
2023-05-18T09:43:51.270Z,25.30
2023-05-18T09:46:20.992Z,25.80
2023-05-18T09:48:51.894Z,25.50
2023-05-18T09:51:18.970Z,26.00
2023-05-18T09:54:05.326Z,27.30
2023-05-18T09:56:36.662Z,28.20
2023-05-18T10:02:02.787Z,25.20
2023-05-18T10:07:17.461Z,24.50
2023-05-18T10:09:46.038Z,25.90
2023-05-18T10:12:18.474Z,26.10
2023-05-18T10:14:46.118Z,24.90
2023-05-18T10:17:16.636Z,23.00
2023-05-18T10:19:45.327Z,21.10
2023-05-18T10:22:17.013Z,20.20
2023-05-18T10:24:51.986Z,19.60
2023-05-18T10:27:27.856Z,19.00
2023-05-18T10:29:58.814Z,18.40
2023-05-18T10:32:26.100Z,18.20
2023-05-18T10:34:53.968Z,18.30
2023-05-18T10:37:23.956Z,17.80
2023-05-18T10:39:51.936Z,17.40
2023-05-18T10:42:20.201Z,17.20
2023-05-18T10:44:48.636Z,17.30
2023-05-18T10:47:15.861Z,17.50
2023-05-18T10:49:43.857Z,17.70
2023-05-18T10:52:12.283Z,17.80
2023-05-18T10:54:41.152Z,17.60
2023-05-18T10:57:14.322Z,17.50
2023-05-18T10:59:45.374Z,17.50
2023-05-18T11:02:17.560Z,17.40
2023-05-18T11:04:47.504Z,17.30
2023-05-18T11:07:14.966Z,17.30
2023-05-18T11:09:43.408Z,17.40
2023-05-18T11:12:15.986Z,17.40
2023-05-18T11:14:54.515Z,17.50
2023-05-18T11:17:25.966Z,17.60
2023-05-18T11:20:07.784Z,17.60
2023-05-18T11:22:54.739Z,17.60
2023-05-18T11:25:24.402Z,17.70
2023-05-18T11:28:10.047Z,17.50
2023-05-18T11:30:36.868Z,17.40
2023-05-18T11:33:13.732Z,17.30
2023-05-18T11:36:11.765Z,17.10
2023-05-18T11:39:11.310Z,17.10
2023-05-18T11:41:42.433Z,17.20
2023-05-18T11:44:11.869Z,17.10
2023-05-18T11:47:01.457Z,17.30
2023-05-18T11:49:58.023Z,17.40
2023-05-18T11:52:25.718Z,17.30
2023-05-18T11:54:54.054Z,16.90
2023-05-18T11:57:26.814Z,17.00
2023-05-18T11:59:58.822Z,17.10
2023-05-18T12:02:32.178Z,17.10
2023-05-18T12:05:00.985Z,17.10
2023-05-18T12:07:30.356Z,17.30
2023-05-18T12:10:14.446Z,17.40
2023-05-18T12:12:41.824Z,17.10
2023-05-18T12:15:11.172Z,16.90
2023-05-18T12:17:46.090Z,16.90
2023-05-18T12:20:18.987Z,16.80
2023-05-18T12:22:52.506Z,16.80
2023-05-18T12:25:25.103Z,17.00
2023-05-18T12:27:53.818Z,17.20
2023-05-18T12:30:38.219Z,17.10
2023-05-18T12:33:05.071Z,17.30
2023-05-18T12:35:32.926Z,17.20
2023-05-18T12:38:00.726Z,17.10
2023-05-18T12:40:38.467Z,17.10
2023-05-18T12:43:05.127Z,17.20
2023-05-18T12:45:34.343Z,17.30
2023-05-18T12:48:06.056Z,17.20
2023-05-18T12:50:32.979Z,17.30
2023-05-18T12:53:01.577Z,17.20
2023-05-18T12:55:30.787Z,17.30
2023-05-18T12:58:02.100Z,17.20
2023-05-18T13:00:34.093Z,17.30
2023-05-18T13:03:17.338Z,17.30
2023-05-18T13:05:46.854Z,17.10
2023-05-18T13:08:21.815Z,17.20
2023-05-18T13:10:57.998Z,17.10
2023-05-18T13:13:32.837Z,17.20
2023-05-18T13:16:00.323Z,17.50
2023-05-18T13:18:28.433Z,17.50
2023-05-18T13:20:58.521Z,17.70
2023-05-18T13:23:28.941Z,17.90
2023-05-18T13:25:58.522Z,18.00
2023-05-18T13:28:27.168Z,18.10
2023-05-18T13:30:53.931Z,18.20
2023-05-18T13:33:21.338Z,18.10
2023-05-18T13:35:49.561Z,18.00
2023-05-18T13:38:16.383Z,18.00
2023-05-18T13:40:43.079Z,17.90
2023-05-18T13:43:11.183Z,17.80
2023-05-18T13:45:40.864Z,17.80
2023-05-18T13:48:10.155Z,17.90
2023-05-18T13:50:38.775Z,18.00
2023-05-18T13:53:06.374Z,18.00
2023-05-18T13:55:33.513Z,18.00
2023-05-18T13:58:00.738Z,18.10
2023-05-18T14:00:27.729Z,18.20
2023-05-18T14:02:54.621Z,18.20
2023-05-18T14:05:22.138Z,18.10
2023-05-18T14:07:48.814Z,18.00
2023-05-18T14:10:15.683Z,18.00
2023-05-18T14:12:42.640Z,17.90
2023-05-18T14:15:11.464Z,17.90
2023-05-18T14:17:38.098Z,18.00
2023-05-18T14:20:05.948Z,17.90
2023-05-18T14:22:32.964Z,17.80
2023-05-18T14:24:59.738Z,17.80
2023-05-18T14:27:29.640Z,17.70
2023-05-18T14:29:56.562Z,17.80
2023-05-18T14:32:23.471Z,17.90
2023-05-18T14:34:51.977Z,17.90
2023-05-18T14:37:19.022Z,18.00
2023-05-18T14:39:45.709Z,18.00
2023-05-18T14:42:12.398Z,18.00
2023-05-18T14:44:39.172Z,18.00
2023-05-18T14:47:06.282Z,18.20
2023-05-18T14:49:33.317Z,18.30
2023-05-18T14:51:59.925Z,18.30
2023-05-18T14:54:26.708Z,18.10
2023-05-18T14:56:53.363Z,18.00
2023-05-18T14:59:21.106Z,17.90
2023-05-18T15:01:47.747Z,18.10
2023-05-18T15:04:14.811Z,18.20
2023-05-18T15:06:41.754Z,18.30
2023-05-18T15:09:08.549Z,18.30
2023-05-18T15:11:35.445Z,18.40
2023-05-18T15:14:02.078Z,18.20
2023-05-18T15:16:28.793Z,18.10
2023-05-18T15:18:55.494Z,18.10
2023-05-18T15:21:22.195Z,17.90
2023-05-18T15:23:48.805Z,17.90
2023-05-18T15:26:15.464Z,18.00
2023-05-18T15:28:44.737Z,18.20
2023-05-18T15:31:11.417Z,18.30
2023-05-18T15:33:41.891Z,18.30
2023-05-18T15:36:09.339Z,18.40
2023-05-18T15:38:37.176Z,18.40
2023-05-18T15:41:04.096Z,18.50
2023-05-18T15:43:30.953Z,18.60
2023-05-18T15:45:58.702Z,18.50
2023-05-18T15:48:25.685Z,18.50
2023-05-18T15:50:52.368Z,18.20
2023-05-18T15:53:19.062Z,18.20
2023-05-18T15:55:45.976Z,18.10
2023-05-18T15:58:16.034Z,18.00
2023-05-18T16:00:42.688Z,18.00
2023-05-18T16:03:09.403Z,18.00
2023-05-18T16:05:36.154Z,18.00
2023-05-18T16:08:02.781Z,18.10
2023-05-18T16:10:29.956Z,18.10
2023-05-18T16:13:00.325Z,18.10
2023-05-18T16:15:27.032Z,18.00
2023-05-18T16:17:54.481Z,18.10
2023-05-18T16:20:21.321Z,18.00
2023-05-18T16:22:49.123Z,18.00
2023-05-18T16:25:15.751Z,17.90
2023-05-18T16:27:42.520Z,17.60
2023-05-18T16:30:09.778Z,17.50
2023-05-18T16:32:36.527Z,17.40
2023-05-18T16:35:04.627Z,17.30
2023-05-18T16:37:31.252Z,17.10
2023-05-18T16:39:57.909Z,17.10
2023-05-18T16:42:25.704Z,17.00
2023-05-18T16:44:52.305Z,17.00
2023-05-18T16:47:18.901Z,16.90
2023-05-18T16:49:45.661Z,16.90
2023-05-18T16:52:12.505Z,17.00
2023-05-18T16:54:39.140Z,17.00
2023-05-18T16:57:06.128Z,17.00
2023-05-18T16:59:34.255Z,17.00
2023-05-18T17:02:01.381Z,17.00
2023-05-18T17:04:28.075Z,16.90
2023-05-18T17:06:54.832Z,16.80
2023-05-18T17:09:21.518Z,16.70
2023-05-18T17:11:48.660Z,16.60
2023-05-18T17:14:15.506Z,16.70
2023-05-18T17:16:42.326Z,16.60
2023-05-18T17:19:09.117Z,16.50
2023-05-18T17:21:35.792Z,16.40
2023-05-18T17:24:02.422Z,16.40
2023-05-18T17:26:30.677Z,16.30
2023-05-18T17:28:57.521Z,16.30
2023-05-18T17:31:24.249Z,16.30
2023-05-18T17:33:51.142Z,16.20
2023-05-18T17:36:18.171Z,16.10
2023-05-18T17:38:45.158Z,16.10
2023-05-18T17:41:11.892Z,16.00
2023-05-18T17:43:38.707Z,16.00
2023-05-18T17:46:06.549Z,15.90
2023-05-18T17:48:33.295Z,15.80
2023-05-18T17:51:00.278Z,15.70
2023-05-18T17:53:26.920Z,15.70
2023-05-18T17:55:53.620Z,15.70
2023-05-18T17:58:20.373Z,15.60
2023-05-18T18:00:47.053Z,15.60
2023-05-18T18:03:13.923Z,15.50
2023-05-18T18:05:40.760Z,15.30
2023-05-18T18:08:07.429Z,15.20
2023-05-18T18:10:34.663Z,15.10
2023-05-18T18:13:01.427Z,15.10
2023-05-18T18:15:28.838Z,15.00
2023-05-18T18:17:56.374Z,15.00
2023-05-18T18:20:23.398Z,15.00
2023-05-18T18:22:50.017Z,14.90
2023-05-18T18:25:16.675Z,14.80
2023-05-18T18:27:43.614Z,14.70
2023-05-18T18:30:10.983Z,14.70
2023-05-18T18:32:37.674Z,14.60
2023-05-18T18:35:04.789Z,14.60
2023-05-18T18:37:31.414Z,14.50
2023-05-18T18:39:58.146Z,14.50
2023-05-18T18:42:24.926Z,14.40
2023-05-18T18:44:56.373Z,14.30
2023-05-18T18:47:23.503Z,14.20
2023-05-18T18:49:50.572Z,14.10
2023-05-18T18:52:17.443Z,13.90
2023-05-18T18:54:44.919Z,13.90
2023-05-18T18:57:12.086Z,13.90
2023-05-18T18:59:39.247Z,13.80
2023-05-18T19:02:06.108Z,13.70
2023-05-18T19:04:32.979Z,13.50
2023-05-18T19:07:02.808Z,13.40
2023-05-18T19:09:32.595Z,13.20
2023-05-18T19:11:59.336Z,13.10
2023-05-18T19:14:26.200Z,12.90
2023-05-18T19:16:53.039Z,12.80
2023-05-18T19:19:19.808Z,12.70
2023-05-18T19:21:46.834Z,12.60
2023-05-18T19:24:13.533Z,12.50
2023-05-18T19:26:40.333Z,12.40
2023-05-18T19:29:07.027Z,12.30
2023-05-18T19:31:37.652Z,12.10
2023-05-18T19:34:04.454Z,12.10
2023-05-18T19:36:31.450Z,12.00
2023-05-18T19:38:58.116Z,11.90
2023-05-18T19:41:26.823Z,11.80
2023-05-18T19:43:53.547Z,11.80
2023-05-18T19:46:20.245Z,11.60
2023-05-18T19:48:46.943Z,11.50
2023-05-18T19:51:13.572Z,11.50
2023-05-18T19:53:40.273Z,11.40
2023-05-18T19:56:07.032Z,11.30
2023-05-18T19:58:33.686Z,11.30
2023-05-18T20:01:00.424Z,11.10
2023-05-18T20:03:27.453Z,11.10
2023-05-18T20:05:55.976Z,10.90
2023-05-18T20:08:22.853Z,10.90
2023-05-18T20:10:49.768Z,10.80
2023-05-18T20:13:16.386Z,10.80
2023-05-18T20:15:43.612Z,10.70
2023-05-18T20:18:10.374Z,10.70
2023-05-18T20:20:37.532Z,10.60
2023-05-18T20:23:06.713Z,10.60
2023-05-18T20:25:34.943Z,10.60
2023-05-18T20:28:03.290Z,10.50
2023-05-18T20:30:30.713Z,10.40
2023-05-18T20:33:03.568Z,10.30
2023-05-18T20:35:30.827Z,10.30
2023-05-18T20:37:59.414Z,10.40
2023-05-18T20:40:30.640Z,10.30
2023-05-18T20:43:00.894Z,10.30
2023-05-18T20:45:29.698Z,10.20
2023-05-18T20:47:56.816Z,10.10
2023-05-18T20:50:23.860Z,10.00
2023-05-18T20:52:50.911Z,10.00
2023-05-18T20:55:18.870Z,10.00
2023-05-18T20:57:48.879Z,9.90
2023-05-18T21:00:19.794Z,10.00
2023-05-18T21:02:48.123Z,10.00
2023-05-18T21:05:16.173Z,10.10
2023-05-18T21:07:43.699Z,10.10
2023-05-18T21:10:11.478Z,10.20
2023-05-18T21:12:38.275Z,10.30
2023-05-18T21:15:05.881Z,10.30
2023-05-18T21:17:32.650Z,10.40
2023-05-18T21:19:59.301Z,10.40
2023-05-18T21:22:25.948Z,10.40
2023-05-18T21:24:52.566Z,10.50
2023-05-18T21:27:19.221Z,10.50
2023-05-18T21:29:45.884Z,10.50
2023-05-18T21:32:12.677Z,10.40
2023-05-18T21:34:41.228Z,10.40
2023-05-18T21:37:10.680Z,10.40
2023-05-18T21:39:37.319Z,10.40
2023-05-18T21:42:04.327Z,10.40
2023-05-18T21:44:32.368Z,10.30
2023-05-18T21:46:58.982Z,10.30
2023-05-18T21:49:25.718Z,10.30
2023-05-18T21:51:52.444Z,10.10
2023-05-18T21:54:19.082Z,10.10
2023-05-18T21:56:45.924Z,10.00
2023-05-18T21:59:12.638Z,9.90
2023-05-18T22:01:39.972Z,9.80
2023-05-18T22:04:13.548Z,9.60
2023-05-18T22:06:41.395Z,9.50
2023-05-18T22:09:07.996Z,9.50
2023-05-18T22:11:34.641Z,9.40
2023-05-18T22:14:02.513Z,9.30
2023-05-18T22:16:29.209Z,9.10
2023-05-18T22:18:55.907Z,9.10
2023-05-18T22:21:22.557Z,9.10
2023-05-18T22:23:49.139Z,9.20
2023-05-18T22:26:16.846Z,9.10
2023-05-18T22:28:43.481Z,9.00
2023-05-18T22:31:10.099Z,8.90
2023-05-18T22:33:36.703Z,8.80
2023-05-18T22:36:03.903Z,8.70
2023-05-18T22:38:30.562Z,8.60
2023-05-18T22:40:57.240Z,8.60
2023-05-18T22:43:23.928Z,8.60
2023-05-18T22:45:50.670Z,8.60
2023-05-18T22:48:17.435Z,8.70
2023-05-18T22:50:44.103Z,8.70
2023-05-18T22:53:11.903Z,8.70
2023-05-18T22:55:39.014Z,8.70
2023-05-18T22:58:05.680Z,8.60
2023-05-18T23:00:32.441Z,8.60
2023-05-18T23:02:59.311Z,8.50
2023-05-18T23:05:27.466Z,8.50
2023-05-18T23:07:57.612Z,8.50
2023-05-18T23:10:26.267Z,8.50
2023-05-18T23:12:55.588Z,8.50
2023-05-18T23:15:23.253Z,8.60
2023-05-18T23:17:50.051Z,8.60
2023-05-18T23:20:16.813Z,8.60
2023-05-18T23:22:43.563Z,8.60
2023-05-18T23:25:10.966Z,8.60
2023-05-18T23:27:37.769Z,8.60
2023-05-18T23:30:05.333Z,8.60
2023-05-18T23:32:32.526Z,8.60
2023-05-18T23:34:59.795Z,8.60
2023-05-18T23:37:26.740Z,8.60
2023-05-18T23:39:55.440Z,8.60
2023-05-18T23:42:24.495Z,8.60
2023-05-18T23:44:51.518Z,8.60
2023-05-18T23:47:18.625Z,8.60
2023-05-18T23:49:47.526Z,8.60
2023-05-18T23:52:16.125Z,8.80
2023-05-18T23:54:45.492Z,8.80
2023-05-18T23:57:12.510Z,8.90
2023-05-18T23:59:40.428Z,9.00
